Cornwall Bridge, Connecticut
Current Conditions -  °F | °C
As of 5:52 PM on Tuesday 25 Nov 2014 (Local Time) from KOXC Reporting Station
Broken Clouds Broken Clouds  
Wind Chill: 46°   Ceiling: 25000
Heat Index: 46°   Visibility: 10mi
Dew Point: 25°   Wind: 0mph
Humidity: 43%   Direction: NA
Pressure: 30.03"   Gusts: NA
Location:  41.82°N, 73.37°W
Report Text: KOXC 252252Z 00000KT 10SM BKN250 08/M04 A3003
Loading
Personal Weather Stations






























Interactive Weather Map New forecast layout! Learn more

10-Day Weather Forecast

Advertisements
Track Severe Weather on mobile